Time;durP1;ratioP1;P1;durP2;ratioP2;P2;SDS_P1;SDS_P2;PMS_P1;PMS_P2;Temp;Humidity;BMP_temperature;BMP_pressure;BME280_temperature;BME280_humidity;BME280_pressure;Samples;Min_cycle;Max_cycle;Signal;HPM_P1;HPM_P2
2022/06/07 00:02:19;;;;;;;;;;;25.20;46.40;;;;;;5052434;28;19913;-62
2022/06/07 00:04:45;;;;;;;;;;;25.20;46.50;;;;;;5053641;28;19909;-62
2022/06/07 00:07:10;;;;;;;;;;;25.20;46.60;;;;;;5052397;28;19913;-62
2022/06/07 00:09:35;;;;;;;;;;;25.20;46.60;;;;;;5053375;28;20007;-62
2022/06/07 00:12:01;;;;;;;;;;;25.10;46.70;;;;;;5053554;28;20280;-62
2022/06/07 00:14:26;;;;;;;;;;;25.10;46.70;;;;;;5053387;28;19913;-62
2022/06/07 00:16:54;;;;;;;;;;;25.10;46.70;;;;;;5053421;28;19909;-62
2022/06/07 00:19:20;;;;;;;;;;;25.10;46.60;;;;;;5053603;28;19916;-62
2022/06/07 00:21:45;;;;;;;;;;;25.20;46.60;;;;;;5035437;28;19913;-62
2022/06/07 00:24:11;;;;;;;;;;;25.10;46.70;;;;;;5052024;28;19909;-62
2022/06/07 00:26:38;;;;;;;;;;;25.10;46.50;;;;;;5053238;28;19909;-62
2022/06/07 00:29:04;;;;;;;;;;;25.10;46.50;;;;;;5053231;28;19962;-62
2022/06/07 00:31:29;;;;;;;;;;;25.10;46.50;;;;;;5053171;28;19912;-62
2022/06/07 00:33:54;;;;;;;;;;;25.10;46.60;;;;;;5053173;28;19952;-62
2022/06/07 00:36:20;;;;;;;;;;;25.10;46.70;;;;;;5051795;28;19916;-62
2022/06/07 00:38:45;;;;;;;;;;;25.10;46.60;;;;;;5051856;28;20334;-62
2022/06/07 00:41:11;;;;;;;;;;;25.10;46.50;;;;;;5053346;28;20293;-62
2022/06/07 00:43:36;;;;;;;;;;;25.00;46.70;;;;;;5052790;28;19909;-62
2022/06/07 00:46:05;;;;;;;;;;;25.10;46.80;;;;;;5053245;28;20003;-62
2022/06/07 00:48:31;;;;;;;;;;;25.10;46.80;;;;;;5073196;28;19915;-62
2022/06/07 00:50:57;;;;;;;;;;;25.10;46.70;;;;;;5073305;28;19940;-62
2022/06/07 00:53:24;;;;;;;;;;;25.10;46.70;;;;;;5055024;28;19912;-62
2022/06/07 00:55:49;;;;;;;;;;;25.00;46.80;;;;;;5072977;28;20383;-62
2022/06/07 00:58:15;;;;;;;;;;;25.00;46.70;;;;;;5054993;28;19908;-62
2022/06/07 01:00:41;;;;;;;;;;;25.00;46.70;;;;;;5072966;28;20359;-62
2022/06/07 01:03:06;;;;;;;;;;;25.00;46.70;;;;;;5072782;28;20315;-62
2022/06/07 01:05:32;;;;;;;;;;;25.00;46.70;;;;;;5072890;28;20007;-62
2022/06/07 01:10:44;;;;;;;;;;;25.00;46.70;;;;;;5072910;28;19932;-62
2022/06/07 01:13:10;;;;;;;;;;;25.00;46.70;;;;;;5073083;28;19916;-62
2022/06/07 01:15:36;;;;;;;;;;;25.00;46.70;;;;;;5072778;28;19957;-62
2022/06/07 01:18:02;;;;;;;;;;;25.00;46.70;;;;;;5072798;28;19915;-62
2022/06/07 01:20:28;;;;;;;;;;;24.90;46.70;;;;;;5072672;28;19919;-61
2022/06/07 01:22:54;;;;;;;;;;;24.90;46.70;;;;;;5072955;28;19959;-62
2022/06/07 01:25:19;;;;;;;;;;;24.90;46.80;;;;;;5072943;28;19948;-62
2022/06/07 01:27:45;;;;;;;;;;;24.90;46.70;;;;;;5088149;28;20383;-62
2022/06/07 01:30:10;;;;;;;;;;;24.90;46.70;;;;;;5072604;28;20487;-62
2022/06/07 01:32:36;;;;;;;;;;;24.90;46.70;;;;;;5072875;28;20383;-62
2022/06/07 01:35:02;;;;;;;;;;;25.00;46.70;;;;;;5072612;28;20336;-62
2022/06/07 01:37:27;;;;;;;;;;;24.90;46.70;;;;;;5072536;28;19912;-62
2022/06/07 01:42:37;;;;;;;;;;;24.90;46.80;;;;;;5072495;28;19931;-62
2022/06/07 01:45:02;;;;;;;;;;;24.90;46.80;;;;;;5072650;28;19912;-62
2022/06/07 01:47:29;;;;;;;;;;;24.90;46.90;;;;;;5072219;28;20273;-62
2022/06/07 01:49:54;;;;;;;;;;;24.90;47.50;;;;;;5054569;28;19909;-62
2022/06/07 01:52:20;;;;;;;;;;;24.80;46.80;;;;;;5072412;28;19915;-62
2022/06/07 01:54:46;;;;;;;;;;;24.90;46.90;;;;;;5055779;28;19915;-62
2022/06/07 01:57:11;;;;;;;;;;;24.80;46.80;;;;;;5076076;28;19908;-62
2022/06/07 01:59:38;;;;;;;;;;;24.80;46.80;;;;;;5091462;28;19920;-62
2022/06/07 02:02:04;;;;;;;;;;;24.80;46.80;;;;;;5075908;28;19915;-62
2022/06/07 02:04:30;;;;;;;;;;;24.80;46.80;;;;;;5075760;28;19909;-62
2022/06/07 02:06:55;;;;;;;;;;;24.80;46.80;;;;;;5075746;28;19913;-62
2022/06/07 02:09:21;;;;;;;;;;;24.70;46.80;;;;;;5075757;28;19951;-62
2022/06/07 02:11:46;;;;;;;;;;;24.80;46.90;;;;;;5075707;28;19916;-62
2022/06/07 02:14:12;;;;;;;;;;;24.80;46.90;;;;;;5075781;28;20053;-62
2022/06/07 02:16:37;;;;;;;;;;;24.80;47.00;;;;;;5075588;28;19919;-62
2022/06/07 02:19:03;;;;;;;;;;;24.80;46.90;;;;;;5057786;28;19915;-62
2022/06/07 02:21:28;;;;;;;;;;;24.80;46.90;;;;;;5075489;28;19956;-62
2022/06/07 02:23:54;;;;;;;;;;;24.70;46.80;;;;;;5075454;28;19915;-62
2022/06/07 02:26:19;;;;;;;;;;;24.70;46.80;;;;;;5075674;28;19974;-62
2022/06/07 02:28:46;;;;;;;;;;;24.70;46.80;;;;;;5075287;28;19919;-62
2022/06/07 02:31:12;;;;;;;;;;;24.70;46.80;;;;;;5075395;28;20261;-62
2022/06/07 02:33:38;;;;;;;;;;;24.70;47.00;;;;;;5075260;28;19919;-62
2022/06/07 02:36:04;;;;;;;;;;;24.70;47.00;;;;;;5075366;28;20373;-62
2022/06/07 02:38:30;;;;;;;;;;;24.70;46.80;;;;;;5075122;28;19915;-62
2022/06/07 02:40:55;;;;;;;;;;;24.70;46.90;;;;;;5075147;28;20350;-62
2022/06/07 02:43:21;;;;;;;;;;;24.70;46.90;;;;;;5090631;28;19908;-62
2022/06/07 02:45:46;;;;;;;;;;;24.70;46.80;;;;;;5075430;28;19908;-62
2022/06/07 02:48:12;;;;;;;;;;;24.70;46.80;;;;;;5057100;28;19921;-62
2022/06/07 02:50:37;;;;;;;;;;;24.70;46.80;;;;;;5074968;28;20062;-62
2022/06/07 02:53:03;;;;;;;;;;;24.70;46.90;;;;;;5074952;28;19912;-62
2022/06/07 02:55:28;;;;;;;;;;;24.70;47.00;;;;;;5074876;28;20061;-62
2022/06/07 02:57:54;;;;;;;;;;;24.70;47.00;;;;;;5056987;28;19915;-62
2022/06/07 03:00:19;;;;;;;;;;;24.70;47.00;;;;;;5090334;28;20002;-62
2022/06/07 03:02:45;;;;;;;;;;;24.70;46.90;;;;;;5074802;28;19954;-62
2022/06/07 03:05:10;;;;;;;;;;;24.70;46.80;;;;;;5074591;28;19909;-62
2022/06/07 03:07:36;;;;;;;;;;;24.70;46.80;;;;;;5074601;28;19913;-62
2022/06/07 03:10:02;;;;;;;;;;;24.70;46.80;;;;;;5074628;28;20318;-62
2022/06/07 03:12:27;;;;;;;;;;;24.70;46.90;;;;;;5074824;28;19913;-62
2022/06/07 03:14:53;;;;;;;;;;;24.70;47.00;;;;;;5074606;28;19909;-62
2022/06/07 03:17:18;;;;;;;;;;;24.70;47.00;;;;;;5074515;28;19908;-62
2022/06/07 03:19:44;;;;;;;;;;;24.70;47.00;;;;;;5074364;28;19909;-62
2022/06/07 03:22:09;;;;;;;;;;;24.70;46.90;;;;;;5074186;28;19909;-62
2022/06/07 03:24:35;;;;;;;;;;;24.70;47.00;;;;;;5074437;28;19953;-62
2022/06/07 03:27:01;;;;;;;;;;;24.70;47.00;;;;;;5074265;28;19957;-62
2022/06/07 03:29:26;;;;;;;;;;;24.70;46.90;;;;;;5074181;28;19963;-62
2022/06/07 03:31:52;;;;;;;;;;;24.70;46.90;;;;;;5074080;28;20261;-61
2022/06/07 03:34:17;;;;;;;;;;;24.70;46.80;;;;;;5074129;28;20277;-62
2022/06/07 03:36:43;;;;;;;;;;;24.70;46.90;;;;;;5073858;28;20322;-62
2022/06/07 03:39:09;;;;;;;;;;;24.70;46.90;;;;;;5073924;28;19999;-62
2022/06/07 03:41:34;;;;;;;;;;;24.70;46.90;;;;;;5073659;28;20003;-62
2022/06/07 03:44:00;;;;;;;;;;;24.60;47.00;;;;;;5073754;28;19908;-62
2022/06/07 03:46:27;;;;;;;;;;;24.60;46.80;;;;;;5073629;28;19965;-62
2022/06/07 03:48:52;;;;;;;;;;;24.70;46.90;;;;;;5055894;28;19934;-62
2022/06/07 03:51:18;;;;;;;;;;;24.60;47.00;;;;;;5055911;28;19913;-62
2022/06/07 03:53:44;;;;;;;;;;;24.60;47.00;;;;;;5055911;28;19916;-62
2022/06/07 03:56:09;;;;;;;;;;;24.50;47.00;;;;;;5073581;28;19908;-62
2022/06/07 03:58:37;;;;;;;;;;;24.50;46.90;;;;;;5073519;28;20007;-61
2022/06/07 04:01:02;;;;;;;;;;;24.50;46.90;;;;;;5073535;28;19931;-61
2022/06/07 04:03:28;;;;;;;;;;;24.50;47.00;;;;;;5073419;28;20373;-62
2022/06/07 04:05:54;;;;;;;;;;;24.50;46.90;;;;;;5073562;28;19908;-62
2022/06/07 04:08:19;;;;;;;;;;;24.60;47.00;;;;;;5073248;28;20458;-62
2022/06/07 04:10:52;;;;;;;;;;;24.50;46.90;;;;;;5073342;28;19909;-62
2022/06/07 04:13:18;;;;;;;;;;;24.50;46.90;;;;;;5055505;28;19978;-62
2022/06/07 04:15:43;;;;;;;;;;;24.50;47.00;;;;;;5073360;28;19961;-62
2022/06/07 04:18:09;;;;;;;;;;;24.50;47.00;;;;;;5054950;28;19908;-62
2022/06/07 04:20:35;;;;;;;;;;;24.50;47.00;;;;;;5055251;28;19916;-62
2022/06/07 04:23:00;;;;;;;;;;;24.50;47.00;;;;;;5073276;28;19915;-62
2022/06/07 04:25:27;;;;;;;;;;;24.50;47.00;;;;;;5073334;28;20339;-62
2022/06/07 04:27:53;;;;;;;;;;;24.50;46.90;;;;;;5073299;28;19912;-62
2022/06/07 04:30:19;;;;;;;;;;;24.50;46.80;;;;;;5055143;28;20280;-62
2022/06/07 04:32:47;;;;;;;;;;;24.50;46.90;;;;;;5073011;28;19908;-62
2022/06/07 04:35:15;;;;;;;;;;;24.50;46.80;;;;;;5073043;28;19908;-61
2022/06/07 04:37:40;;;;;;;;;;;24.50;46.90;;;;;;5073192;28;19908;-62
2022/06/07 04:40:06;;;;;;;;;;;24.50;46.90;;;;;;5073070;28;19969;-62
2022/06/07 04:42:32;;;;;;;;;;;24.50;46.90;;;;;;5072818;28;20009;-62
2022/06/07 04:44:57;;;;;;;;;;;24.50;46.90;;;;;;5088555;28;19915;-62
2022/06/07 04:47:22;;;;;;;;;;;24.50;46.90;;;;;;5072713;28;20275;-62
2022/06/07 04:49:48;;;;;;;;;;;24.50;46.80;;;;;;5072883;28;19919;-62
2022/06/07 04:52:13;;;;;;;;;;;24.50;46.70;;;;;;5072817;28;19978;-62
2022/06/07 04:54:39;;;;;;;;;;;24.60;46.80;;;;;;5072885;28;19909;-62
2022/06/07 04:57:04;;;;;;;;;;;24.50;46.70;;;;;;5088404;28;19915;-62
2022/06/07 04:59:30;;;;;;;;;;;24.50;46.90;;;;;;5072742;28;19956;-62
2022/06/07 05:01:55;;;;;;;;;;;24.50;46.80;;;;;;5072815;28;19978;-62
2022/06/07 05:04:20;;;;;;;;;;;24.50;46.80;;;;;;5072670;28;20007;-62
2022/06/07 05:06:47;;;;;;;;;;;24.50;46.80;;;;;;5072663;28;19908;-62
2022/06/07 05:09:14;;;;;;;;;;;24.50;46.90;;;;;;5088158;28;19916;-62
2022/06/07 05:11:39;;;;;;;;;;;24.50;46.80;;;;;;5072600;28;19909;-62
2022/06/07 05:14:05;;;;;;;;;;;24.50;46.80;;;;;;5072773;28;19915;-62
2022/06/07 05:16:30;;;;;;;;;;;24.50;46.90;;;;;;5072635;28;19908;-62
2022/06/07 05:18:56;;;;;;;;;;;24.50;47.00;;;;;;5054633;28;19908;-62
2022/06/07 05:21:22;;;;;;;;;;;24.40;46.80;;;;;;5072614;28;19908;-62
2022/06/07 05:23:47;;;;;;;;;;;24.40;46.90;;;;;;5072737;28;19909;-62
2022/06/07 05:26:35;;;;;;;;;;;24.40;46.90;;;;;;5072559;28;20261;-62
2022/06/07 05:29:01;;;;;;;;;;;24.40;46.90;;;;;;5079408;28;19938;-62
2022/06/07 05:31:26;;;;;;;;;;;24.40;46.90;;;;;;5076280;28;19920;-62
2022/06/07 05:33:52;;;;;;;;;;;24.40;46.90;;;;;;5076582;28;19912;-62
2022/06/07 05:36:17;;;;;;;;;;;24.40;47.00;;;;;;5076569;28;19996;-62
2022/06/07 05:38:43;;;;;;;;;;;24.40;46.90;;;;;;5058348;28;20441;-62
2022/06/07 05:41:12;;;;;;;;;;;24.40;47.00;;;;;;5076220;28;19916;-62
2022/06/07 05:43:37;;;;;;;;;;;24.30;46.90;;;;;;5058273;28;19908;-61
2022/06/07 05:46:02;;;;;;;;;;;24.40;47.00;;;;;;5075954;28;19915;-62
2022/06/07 05:48:33;;;;;;;;;;;24.40;46.90;;;;;;5075982;28;19916;-62
2022/06/07 05:50:58;;;;;;;;;;;24.40;46.90;;;;;;5076312;28;19913;-62
2022/06/07 05:53:23;;;;;;;;;;;24.30;46.90;;;;;;5075882;28;19909;-62
2022/06/07 05:55:49;;;;;;;;;;;24.30;46.90;;;;;;5075902;28;20275;-62
2022/06/07 05:58:14;;;;;;;;;;;24.30;46.90;;;;;;5075848;28;19912;-62
2022/06/07 06:00:40;;;;;;;;;;;24.40;47.00;;;;;;5075781;28;19916;-62
2022/06/07 06:03:05;;;;;;;;;;;24.40;46.90;;;;;;5075745;28;19915;-62
2022/06/07 06:05:31;;;;;;;;;;;24.40;47.00;;;;;;5075693;28;19909;-62
2022/06/07 06:10:41;;;;;;;;;;;24.30;47.00;;;;;;5075602;28;20327;-62
2022/06/07 06:13:07;;;;;;;;;;;24.30;47.10;;;;;;5075440;28;19909;-62
2022/06/07 06:15:32;;;;;;;;;;;24.20;47.10;;;;;;5075483;28;19908;-62
2022/06/07 06:18:00;;;;;;;;;;;24.20;47.10;;;;;;5091005;28;19984;-62
2022/06/07 06:20:25;;;;;;;;;;;24.20;47.10;;;;;;5075445;28;19924;-62
2022/06/07 06:22:51;;;;;;;;;;;24.30;47.20;;;;;;5075354;28;19909;-62
2022/06/07 06:25:16;;;;;;;;;;;24.30;47.80;;;;;;5075225;28;19908;-62
2022/06/07 06:27:42;;;;;;;;;;;24.30;47.20;;;;;;5075471;28;20003;-62
2022/06/07 06:30:07;;;;;;;;;;;24.30;47.20;;;;;;5075301;28;19912;-62
2022/06/07 06:32:33;;;;;;;;;;;24.20;47.20;;;;;;5090674;28;19908;-62
2022/06/07 06:34:58;;;;;;;;;;;24.30;47.20;;;;;;5075018;28;20474;-62
2022/06/07 06:37:27;;;;;;;;;;;24.30;47.20;;;;;;5074913;28;19916;-62
2022/06/07 06:39:52;;;;;;;;;;;24.30;47.10;;;;;;5074606;28;19916;-62
2022/06/07 06:42:18;;;;;;;;;;;24.30;47.20;;;;;;5057212;28;19913;-62
2022/06/07 06:44:43;;;;;;;;;;;24.30;47.30;;;;;;5056965;28;19909;-62
2022/06/07 06:47:09;;;;;;;;;;;24.30;47.30;;;;;;5074761;28;19920;-62
2022/06/07 06:49:34;;;;;;;;;;;24.20;47.30;;;;;;5074745;28;19915;-62
2022/06/07 06:52:00;;;;;;;;;;;24.20;47.30;;;;;;5074665;28;20280;-62
2022/06/07 06:54:25;;;;;;;;;;;24.20;47.30;;;;;;5074648;28;19909;-62
2022/06/07 06:56:51;;;;;;;;;;;24.20;47.30;;;;;;5074581;28;19930;-62
2022/06/07 06:59:16;;;;;;;;;;;24.20;47.40;;;;;;5056787;28;19954;-62
2022/06/07 07:01:42;;;;;;;;;;;24.20;47.50;;;;;;5074659;28;19957;-62
2022/06/07 07:04:12;;;;;;;;;;;24.20;47.60;;;;;;5056742;28;19915;-62
2022/06/07 07:06:38;;;;;;;;;;;24.20;47.60;;;;;;5074751;28;20292;-62
2022/06/07 07:09:04;;;;;;;;;;;24.10;47.40;;;;;;5056685;28;19920;-62
2022/06/07 07:11:31;;;;;;;;;;;24.10;47.60;;;;;;5074473;28;19915;-62
2022/06/07 07:13:58;;;;;;;;;;;24.10;47.60;;;;;;5074658;28;19915;-62
2022/06/07 07:16:24;;;;;;;;;;;24.10;47.50;;;;;;5074359;28;19969;-62
2022/06/07 07:18:50;;;;;;;;;;;24.10;47.50;;;;;;5074382;28;19909;-62
2022/06/07 07:21:17;;;;;;;;;;;24.20;47.60;;;;;;5074246;28;19915;-62
2022/06/07 07:23:42;;;;;;;;;;;24.20;47.50;;;;;;5056685;28;20440;-62
2022/06/07 07:26:11;;;;;;;;;;;24.20;47.50;;;;;;5074225;28;19912;-62
2022/06/07 07:28:36;;;;;;;;;;;24.20;47.60;;;;;;5073985;28;20343;-62
2022/06/07 07:31:04;;;;;;;;;;;24.20;47.50;;;;;;5072887;28;19908;-62
2022/06/07 07:33:29;;;;;;;;;;;24.20;47.60;;;;;;5056201;28;19999;-63
2022/06/07 07:35:55;;;;;;;;;;;24.20;47.70;;;;;;5089674;28;19943;-62
2022/06/07 07:38:20;;;;;;;;;;;24.10;48.20;;;;;;5073680;28;19908;-62
2022/06/07 07:40:46;;;;;;;;;;;24.20;47.60;;;;;;5074077;28;20292;-62
2022/06/07 07:43:12;;;;;;;;;;;24.20;47.70;;;;;;5073761;28;19908;-62
2022/06/07 07:45:37;;;;;;;;;;;24.20;47.70;;;;;;5073882;28;20276;-62
2022/06/07 07:48:03;;;;;;;;;;;24.20;47.70;;;;;;5072158;28;19921;-62
2022/06/07 07:50:29;;;;;;;;;;;24.10;47.80;;;;;;5073841;28;19919;-62
2022/06/07 07:52:56;;;;;;;;;;;24.10;47.90;;;;;;5088595;28;19915;-62
2022/06/07 07:55:21;;;;;;;;;;;24.10;47.80;;;;;;5073840;28;19916;-62
2022/06/07 07:57:47;;;;;;;;;;;24.10;47.80;;;;;;5056001;28;19909;-62
2022/06/07 08:00:12;;;;;;;;;;;24.10;47.80;;;;;;5073491;28;19931;-62
2022/06/07 08:02:38;;;;;;;;;;;24.10;47.80;;;;;;5073387;28;19912;-62
2022/06/07 08:05:04;;;;;;;;;;;24.10;47.80;;;;;;5073285;28;19966;-62
2022/06/07 08:07:29;;;;;;;;;;;24.10;48.50;;;;;;5073253;28;19938;-62
2022/06/07 08:09:54;;;;;;;;;;;24.10;47.80;;;;;;5073310;28;19999;-62
2022/06/07 08:12:20;;;;;;;;;;;24.10;47.80;;;;;;5073141;28;19916;-62
2022/06/07 08:14:45;;;;;;;;;;;24.20;47.90;;;;;;5073349;28;19909;-62
2022/06/07 08:17:11;;;;;;;;;;;24.10;47.90;;;;;;5073230;28;19999;-62
2022/06/07 08:19:36;;;;;;;;;;;24.10;47.80;;;;;;5073238;28;20023;-62
2022/06/07 08:22:03;;;;;;;;;;;24.10;47.80;;;;;;5073354;28;19909;-62
2022/06/07 08:24:29;;;;;;;;;;;24.10;47.80;;;;;;5073449;28;19939;-62
2022/06/07 08:26:54;;;;;;;;;;;24.10;47.90;;;;;;5055483;28;20384;-62
2022/06/07 08:29:20;;;;;;;;;;;24.10;47.90;;;;;;5073083;28;20386;-62
2022/06/07 08:31:45;;;;;;;;;;;24.10;47.80;;;;;;5073098;28;19934;-62
2022/06/07 08:37:38;;;;;;;;;;;24.10;47.80;;;;;;5057851;28;19916;-62
2022/06/07 08:39:45;;;;;;;;;;;24.00;47.70;;;;;;5067973;28;19916;-62
2022/06/07 08:42:15;;;;;;;;;;;24.10;47.80;;;;;;5073011;28;19909;-62
2022/06/07 08:44:49;;;;;;;;;;;24.10;47.80;;;;;;5072914;28;19908;-62
2022/06/07 08:47:20;;;;;;;;;;;24.10;47.90;;;;;;5054789;28;20350;-62
2022/06/07 08:49:46;;;;;;;;;;;24.00;47.70;;;;;;5072950;28;19915;-62
2022/06/07 08:52:22;;;;;;;;;;;24.10;47.80;;;;;;5072804;28;19908;-62
2022/06/07 08:54:48;;;;;;;;;;;24.10;47.90;;;;;;5073068;28;20391;-62
2022/06/07 08:57:21;;;;;;;;;;;24.10;47.80;;;;;;5072826;28;19909;-62
2022/06/07 08:59:48;;;;;;;;;;;24.10;47.90;;;;;;5072734;28;19916;-62
2022/06/07 09:02:23;;;;;;;;;;;24.10;47.80;;;;;;5054760;28;19999;-62
2022/06/07 09:04:48;;;;;;;;;;;24.10;47.80;;;;;;5058166;28;19969;-62
2022/06/07 09:07:14;;;;;;;;;;;24.00;47.80;;;;;;5092323;28;19916;-62
2022/06/07 09:12:27;;;;;;;;;;;24.00;47.80;;;;;;5061674;28;19916;-62
2022/06/07 09:14:53;;;;;;;;;;;24.00;47.70;;;;;;5076653;28;20018;-62
2022/06/07 09:17:20;;;;;;;;;;;24.10;47.80;;;;;;5076917;28;20403;-62
2022/06/07 09:19:46;;;;;;;;;;;24.10;47.80;;;;;;5076680;28;19916;-63
2022/06/07 09:22:19;;;;;;;;;;;24.10;47.80;;;;;;5059009;28;19908;-62
2022/06/07 09:24:53;;;;;;;;;;;24.10;47.80;;;;;;5076494;28;19908;-62
2022/06/07 09:27:23;;;;;;;;;;;24.10;47.80;;;;;;5076279;28;19916;-62
2022/06/07 09:29:59;;;;;;;;;;;24.10;47.80;;;;;;5076410;28;19913;-62
2022/06/07 09:32:26;;;;;;;;;;;24.00;47.80;;;;;;5058456;28;19963;-62
2022/06/07 09:34:54;;;;;;;;;;;24.00;47.90;;;;;;5058315;28;20352;-62
2022/06/07 09:37:21;;;;;;;;;;;24.00;48.00;;;;;;5076248;28;19916;-62
2022/06/07 09:39:47;;;;;;;;;;;24.00;47.80;;;;;;5058323;28;19940;-62
2022/06/07 09:42:15;;;;;;;;;;;24.00;47.80;;;;;;5076194;28;19915;-62
2022/06/07 09:44:51;;;;;;;;;;;24.00;47.80;;;;;;5076040;28;20364;-62
2022/06/07 09:47:19;;;;;;;;;;;24.00;47.80;;;;;;5076048;28;19974;-62
2022/06/07 09:49:45;;;;;;;;;;;24.10;47.90;;;;;;5075892;28;19916;-62
2022/06/07 09:52:12;;;;;;;;;;;24.10;48.50;;;;;;5075948;28;19908;-62
2022/06/07 09:54:38;;;;;;;;;;;24.10;47.80;;;;;;5075770;28;19916;-62
2022/06/07 09:57:10;;;;;;;;;;;24.10;47.80;;;;;;5058156;28;19915;-62
2022/06/07 09:59:35;;;;;;;;;;;24.10;47.90;;;;;;5057683;28;19915;-62
2022/06/07 10:02:19;;;;;;;;;;;24.10;47.90;;;;;;5075679;28;20346;-62
2022/06/07 10:04:56;;;;;;;;;;;24.10;47.80;;;;;;5075602;28;19998;-62
2022/06/07 10:07:35;;;;;;;;;;;24.20;47.90;;;;;;5057763;28;19913;-62
2022/06/07 10:10:05;;;;;;;;;;;24.20;47.90;;;;;;5075573;28;20292;-62
2022/06/07 10:12:37;;;;;;;;;;;24.30;48.00;;;;;;5057792;28;19935;-62
2022/06/07 10:15:10;;;;;;;;;;;24.30;48.00;;;;;;5057247;28;20311;-63
2022/06/07 10:17:39;;;;;;;;;;;24.40;47.90;;;;;;5076065;28;20390;-62
2022/06/07 10:20:07;;;;;;;;;;;24.40;47.70;;;;;;5075531;28;19908;-62
2022/06/07 10:22:38;;;;;;;;;;;24.40;47.60;;;;;;5057495;28;19909;-62
2022/06/07 10:25:10;;;;;;;;;;;24.50;47.70;;;;;;5057543;28;20003;-62
2022/06/07 10:27:42;;;;;;;;;;;24.50;47.70;;;;;;5075341;28;20007;-62
2022/06/07 10:30:19;;;;;;;;;;;24.50;47.40;;;;;;5057507;28;20316;-62
2022/06/07 10:32:47;;;;;;;;;;;24.50;47.40;;;;;;5075412;28;20344;-62
2022/06/07 10:35:24;;;;;;;;;;;24.40;47.50;;;;;;5057335;28;19959;-62
2022/06/07 10:37:49;;;;;;;;;;;24.50;47.40;;;;;;5075306;28;19956;-62
2022/06/07 10:40:18;;;;;;;;;;;24.40;47.50;;;;;;5075356;28;19914;-62
2022/06/07 10:42:45;;;;;;;;;;;24.30;47.50;;;;;;5057153;28;19952;-62
2022/06/07 10:45:20;;;;;;;;;;;24.30;47.50;;;;;;5057339;28;20336;-62
2022/06/07 10:47:56;;;;;;;;;;;24.30;47.70;;;;;;5053462;28;19920;-62
2022/06/07 10:50:25;;;;;;;;;;;24.20;47.90;;;;;;5053577;28;20332;-62
2022/06/07 10:53:05;;;;;;;;;;;24.20;47.90;;;;;;5054720;28;19908;-62
2022/06/07 10:55:30;;;;;;;;;;;24.20;47.90;;;;;;5053490;28;19908;-62
2022/06/07 10:58:04;;;;;;;;;;;24.20;47.90;;;;;;5054663;28;19909;-62
2022/06/07 11:00:38;;;;;;;;;;;24.20;47.80;;;;;;5053745;28;19909;-62
2022/06/07 11:03:27;;;;;;;;;;;24.30;47.70;;;;;;5053363;28;19915;-62
2022/06/07 11:11:30;;;;;;;;;;;24.20;47.90;;;;;;5054544;28;20004;-62
2022/06/07 11:14:14;;;;;;;;;;;24.20;47.90;;;;;;5053655;28;20357;-61
2022/06/07 11:16:42;;;;;;;;;;;24.10;47.80;;;;;;5054564;28;20436;-62
2022/06/07 11:19:07;;;;;;;;;;;24.10;47.80;;;;;;5053308;28;20339;-62
2022/06/07 11:21:34;;;;;;;;;;;24.00;47.80;;;;;;5053185;28;19944;-62
2022/06/07 11:24:02;;;;;;;;;;;24.00;47.90;;;;;;5054531;28;19951;-62
2022/06/07 11:26:34;;;;;;;;;;;24.10;47.80;;;;;;5053859;28;19915;-62
2022/06/07 11:28:59;;;;;;;;;;;24.10;47.80;;;;;;5052591;28;19939;-62
2022/06/07 11:31:28;;;;;;;;;;;24.10;47.90;;;;;;5052687;28;19909;-61
2022/06/07 11:33:54;;;;;;;;;;;24.10;47.80;;;;;;5054122;28;19967;-62
2022/06/07 11:36:25;;;;;;;;;;;24.20;47.80;;;;;;5054145;28;19912;-62
2022/06/07 11:38:54;;;;;;;;;;;24.20;47.60;;;;;;5053813;28;19989;-62
2022/06/07 11:41:37;;;;;;;;;;;24.20;47.60;;;;;;5053958;28;20284;-62
2022/06/07 11:44:23;;;;;;;;;;;24.20;47.60;;;;;;5053899;28;19909;-62
2022/06/07 11:46:52;;;;;;;;;;;24.20;47.60;;;;;;5056379;28;20042;-62
2022/06/07 11:49:17;;;;;;;;;;;24.20;47.70;;;;;;5073940;28;19920;-62
2022/06/07 11:51:50;;;;;;;;;;;24.20;47.60;;;;;;5073734;28;20002;-62
2022/06/07 11:54:15;;;;;;;;;;;24.20;47.60;;;;;;5073779;28;19917;-62
2022/06/07 11:56:45;;;;;;;;;;;24.20;47.60;;;;;;5073675;28;19953;-62
2022/06/07 11:59:16;;;;;;;;;;;24.20;47.50;;;;;;5055462;28;19908;-61
2022/06/07 12:01:44;;;;;;;;;;;24.20;47.50;;;;;;5073430;28;19908;-62
2022/06/07 12:04:28;;;;;;;;;;;24.20;47.30;;;;;;5055620;28;19916;-62
2022/06/07 12:06:55;;;;;;;;;;;24.20;47.40;;;;;;5073373;28;19908;-62
2022/06/07 12:09:20;;;;;;;;;;;24.20;47.60;;;;;;5055415;28;20360;-62
2022/06/07 12:11:45;;;;;;;;;;;24.20;47.50;;;;;;5055500;28;19954;-62
2022/06/07 12:14:17;;;;;;;;;;;24.20;47.60;;;;;;5073248;28;20383;-62
2022/06/07 12:16:52;;;;;;;;;;;24.20;47.60;;;;;;5055684;28;19908;-63
2022/06/07 12:19:18;;;;;;;;;;;24.20;47.50;;;;;;5073376;28;20045;-62
2022/06/07 12:21:46;;;;;;;;;;;24.30;47.50;;;;;;5073136;28;19951;-63
2022/06/07 12:24:15;;;;;;;;;;;24.30;47.50;;;;;;5055160;28;19908;-62
2022/06/07 12:26:41;;;;;;;;;;;24.20;47.40;;;;;;5055564;28;19908;-62
2022/06/07 12:29:11;;;;;;;;;;;24.30;47.40;;;;;;5073365;28;20367;-62
2022/06/07 12:31:43;;;;;;;;;;;24.20;47.40;;;;;;5073177;28;19952;-62
2022/06/07 12:34:15;;;;;;;;;;;24.30;47.30;;;;;;5073268;28;19935;-62
2022/06/07 12:36:41;;;;;;;;;;;24.30;47.20;;;;;;5073130;28;19915;-62
2022/06/07 12:39:11;;;;;;;;;;;24.30;47.80;;;;;;5072489;28;19909;-62
2022/06/07 12:41:43;;;;;;;;;;;24.30;47.10;;;;;;5055060;28;19956;-62
2022/06/07 12:44:11;;;;;;;;;;;24.30;47.10;;;;;;5055072;28;19908;-62
2022/06/07 12:46:41;;;;;;;;;;;24.30;47.10;;;;;;5054703;28;19920;-62
2022/06/07 12:49:12;;;;;;;;;;;24.30;47.20;;;;;;5072342;28;21303;-62
2022/06/07 12:51:37;;;;;;;;;;;24.30;47.50;;;;;;5072917;28;19919;-62
2022/06/07 12:54:22;;;;;;;;;;;24.30;47.20;;;;;;5072856;28;19912;-62
2022/06/07 12:56:47;;;;;;;;;;;24.30;47.30;;;;;;5073028;28;19930;-62
2022/06/07 12:59:17;;;;;;;;;;;24.30;47.30;;;;;;5055108;28;19908;-62
2022/06/07 13:01:43;;;;;;;;;;;24.30;47.30;;;;;;5054753;28;19909;-62
2022/06/07 13:04:28;;;;;;;;;;;24.30;47.30;;;;;;5054921;28;19912;-62
2022/06/07 13:07:09;;;;;;;;;;;24.30;47.30;;;;;;5072739;28;19909;-62
2022/06/07 13:09:35;;;;;;;;;;;24.30;47.20;;;;;;5072594;28;20356;-62
2022/06/07 13:12:00;;;;;;;;;;;24.30;47.20;;;;;;5072516;28;19909;-62
2022/06/07 13:14:26;;;;;;;;;;;24.30;47.30;;;;;;5054660;28;19909;-62
2022/06/07 13:16:52;;;;;;;;;;;24.30;47.20;;;;;;5072997;28;19908;-62
2022/06/07 13:19:27;;;;;;;;;;;24.30;47.20;;;;;;5072585;28;19908;-63
2022/06/07 13:22:11;;;;;;;;;;;24.30;47.20;;;;;;5072596;28;20003;-61
2022/06/07 13:24:46;;;;;;;;;;;24.30;47.30;;;;;;5072477;28;19912;-62
2022/06/07 13:27:43;;;;;;;;;;;24.30;47.40;;;;;;5054483;28;19912;-62
2022/06/07 13:30:13;;;;;;;;;;;24.30;47.30;;;;;;5063915;28;19955;-62
2022/06/07 13:32:38;;;;;;;;;;;24.30;47.30;;;;;;5072544;28;20364;-62
2022/06/07 13:35:13;;;;;;;;;;;24.30;47.30;;;;;;5072428;28;19916;-62
2022/06/07 13:37:55;;;;;;;;;;;24.30;47.20;;;;;;5037864;28;19909;-62
2022/06/07 13:40:25;;;;;;;;;;;24.30;47.20;;;;;;5054566;28;19908;-62
2022/06/07 13:43:22;;;;;;;;;;;24.30;47.10;;;;;;5072532;28;19920;-62
2022/06/07 13:45:49;;;;;;;;;;;24.40;47.10;;;;;;5060153;28;19908;-62
2022/06/07 13:48:22;;;;;;;;;;;24.40;47.00;;;;;;5054398;28;19924;-62
2022/06/07 13:54:11;;;;;;;;;;;24.50;47.10;;;;;;5034334;28;19910;-62
2022/06/07 13:56:37;;;;;;;;;;;24.50;47.10;;;;;;5033837;28;19909;-62
2022/06/07 13:59:04;;;;;;;;;;;24.50;47.40;;;;;;5055373;28;19916;-62
2022/06/07 14:01:33;;;;;;;;;;;24.50;47.70;;;;;;5075729;28;19961;-62
2022/06/07 14:04:00;;;;;;;;;;;24.50;47.60;;;;;;5057992;28;20000;-62
2022/06/07 14:06:30;;;;;;;;;;;24.50;47.30;;;;;;5057852;28;19999;-62
2022/06/07 14:08:56;;;;;;;;;;;24.50;47.00;;;;;;5057875;28;19920;-61
2022/06/07 14:11:21;;;;;;;;;;;24.50;46.90;;;;;;5075941;28;19908;-62
2022/06/07 14:13:47;;;;;;;;;;;24.50;46.90;;;;;;5075707;28;20007;-62
2022/06/07 14:16:13;;;;;;;;;;;24.50;46.90;;;;;;5076012;28;19962;-62
2022/06/07 14:18:42;;;;;;;;;;;24.50;47.10;;;;;;5057767;28;19912;-62
2022/06/07 14:21:07;;;;;;;;;;;24.50;46.90;;;;;;5075534;28;20407;-61
2022/06/07 14:23:33;;;;;;;;;;;24.50;47.10;;;;;;5075437;28;20106;-62
2022/06/07 14:25:58;;;;;;;;;;;24.50;46.90;;;;;;5075574;28;19912;-62
2022/06/07 14:28:24;;;;;;;;;;;24.50;46.90;;;;;;5075269;28;20019;-62
2022/06/07 14:30:50;;;;;;;;;;;24.50;46.90;;;;;;5057453;28;19915;-62
2022/06/07 14:33:16;;;;;;;;;;;24.50;46.80;;;;;;5057440;28;19909;-62
2022/06/07 14:35:42;;;;;;;;;;;24.50;46.90;;;;;;5074041;28;19931;-61
2022/06/07 14:38:12;;;;;;;;;;;24.50;46.90;;;;;;5075190;28;20424;-62
2022/06/07 14:40:39;;;;;;;;;;;24.50;47.00;;;;;;5075170;28;19912;-62
2022/06/07 14:43:05;;;;;;;;;;;24.50;46.90;;;;;;5075139;28;19908;-62